Sciota, Pennsylvania
Current Conditions -  °F | °C
As of 5:31 PM on Thursday 23 Oct 2014 (Local Time) from KMPO Reporting Station
Light Rain Light Rain  
Wind Chill: 37°   Ceiling: 700
Heat Index: 44°   Visibility: 3mi
Dew Point: 42°   Wind: 16mph
Humidity: 93%   Direction: 340°NNW
Pressure: 29.8"   Gusts: 26mph
Location:  40.93°N, 75.32°W
Report Text: KMPO 232131Z AUTO 34014G23KT 3SM -RA BR OVC007 07/06 A2980 RMK AO2 CIG 005V009 T00670056 TSNO PNO $
Loading
Personal Weather Stations






























Interactive Weather Map
Tropical Storm Tracking
New forecast layout! Learn more

10-Day Weather Forecast

Advertisements
Track Severe Weather on mobile